Saint Petersburg, Florida
Current Conditions -  °F | °C
As of 4:53 PM on Tuesday 25 Nov 2014 (Local Time) from KSPG Reporting Station
Overcast Overcast  
Wind Chill: 75°   Ceiling: 5500
Heat Index: 75°   Visibility: 8mi
Dew Point: 73°   Wind: 12mph
Humidity: 94%   Direction: 200°SSW
Pressure: 29.85"   Gusts: NA
Location:  27.77°N, 82.63°W
Report Text: KSPG 252153Z AUTO 20010KT 8SM FEW006 OVC055 24/23 A2985 RMK AO2 LTG DSNT N AND NW SLP107 T02390228
Loading
Personal Weather Stations






























Interactive Weather Map New forecast layout! Learn more

10-Day Weather Forecast

Advertisements
Track Severe Weather on mobile